Time;durP1;ratioP1;P1;durP2;ratioP2;P2;SDS_P1;SDS_P2;PMS_P1;PMS_P2;Temp;Humidity;BMP_temperature;BMP_pressure;BME280_temperature;BME280_humidity;BME280_pressure;Samples;Min_cycle;Max_cycle;Signal;HPM_P1;HPM_P2
2024/01/02 00:01:54;;;;;;;12.10;2.85;;;;;;;2.04;60.31;100221.28;4974839;28;20300;-70
2024/01/02 00:04:20;;;;;;;16.02;3.53;;;;;;;1.98;60.59;100217.94;4956538;28;20051;-69
2024/01/02 00:06:48;;;;;;;13.82;3.55;;;;;;;1.92;60.66;100217.13;4961715;28;20042;-66
2024/01/02 00:09:15;;;;;;;17.30;3.50;;;;;;;2.05;60.13;100210.06;4956056;28;20045;-64
2024/01/02 00:11:41;;;;;;;16.85;3.22;;;;;;;1.98;60.85;100202.47;4958527;28;20636;-67
2024/01/02 00:14:07;;;;;;;12.93;3.63;;;;;;;1.82;60.68;100202.69;4973150;28;20058;-66
2024/01/02 00:16:32;;;;;;;12.60;3.42;;;;;;;1.89;60.46;100191.41;4953486;28;21262;-70
2024/01/02 00:18:58;;;;;;;11.13;3.92;;;;;;;1.88;60.72;100181.97;4949339;28;20177;-70
2024/01/02 00:21:23;;;;;;;14.07;4.13;;;;;;;1.87;61.23;100184.59;4960151;28;20074;-67
2024/01/02 00:23:49;;;;;;;16.77;3.65;;;;;;;1.97;60.47;100180.13;4960532;28;20062;-66
2024/01/02 00:26:15;;;;;;;10.52;3.03;;;;;;;1.95;60.76;100175.00;4958395;28;20638;-64
2024/01/02 00:28:40;;;;;;;13.13;3.58;;;;;;;1.67;62.61;100172.84;4960926;28;20062;-67
2024/01/02 00:31:08;;;;;;;12.05;3.00;;;;;;;1.85;61.39;100166.56;4959572;28;20051;-66
2024/01/02 00:33:33;;;;;;;14.32;3.05;;;;;;;2.02;60.76;100155.13;4987538;28;20162;-67
2024/01/02 00:35:59;;;;;;;12.90;2.78;;;;;;;1.90;61.05;100157.03;4961414;28;20090;-65
2024/01/02 00:38:27;;;;;;;10.98;2.63;;;;;;;2.03;60.67;100144.81;4961076;28;20510;-65
2024/01/02 00:40:52;;;;;;;10.57;2.25;;;;;;;2.08;60.79;100147.31;4960610;28;20136;-67
2024/01/02 00:43:18;;;;;;;12.38;3.22;;;;;;;2.07;60.44;100148.19;4990415;28;20125;-66
2024/01/02 00:45:44;;;;;;;15.43;2.25;;;;;;;2.03;60.97;100142.22;4989914;28;20047;-65
2024/01/02 00:48:10;;;;;;;10.52;1.70;;;;;;;2.05;60.97;100147.38;4951217;28;20046;-70
2024/01/02 00:50:36;;;;;;;8.02;2.17;;;;;;;2.00;61.11;100125.94;4958026;28;20565;-71
2024/01/02 00:53:04;;;;;;;6.15;2.13;;;;;;;1.82;61.64;100124.53;4966115;28;20484;-70
2024/01/02 00:55:29;;;;;;;8.48;1.77;;;;;;;2.00;61.20;100124.25;4959364;28;20580;-70
2024/01/02 00:57:55;;;;;;;7.97;1.35;;;;;;;2.08;60.70;100111.22;4961906;28;20038;-71
2024/01/02 01:00:20;;;;;;;9.40;1.63;;;;;;;2.06;60.97;100108.66;4958110;28;20096;-65
2024/01/02 01:02:46;;;;;;;12.05;2.97;;;;;;;2.23;60.08;100104.97;4975240;28;20039;-69
2024/01/02 01:05:12;;;;;;;18.25;1.98;;;;;;;2.11;60.89;100085.41;4965713;28;20493;-67
2024/01/02 01:07:37;;;;;;;8.07;2.05;;;;;;;2.21;60.48;100092.09;4957388;28;20046;-67
2024/01/02 01:10:03;;;;;;;9.88;1.70;;;;;;;2.18;60.51;100075.84;4962101;28;20138;-70
2024/01/02 01:12:28;;;;;;;7.68;1.25;;;;;;;2.25;60.45;100080.84;4958974;28;20031;-69
2024/01/02 01:14:54;;;;;;;6.65;1.23;;;;;;;2.19;60.45;100072.38;4961494;28;21209;-65
2024/01/02 01:17:19;;;;;;;8.93;1.83;;;;;;;2.23;59.84;100061.97;4959492;28;20042;-65
2024/01/02 01:19:45;;;;;;;5.70;2.00;;;;;;;2.21;60.08;100060.31;4961826;28;20046;-65
2024/01/02 01:22:10;;;;;;;9.98;2.90;;;;;;;2.23;59.97;100059.38;4962600;28;20078;-64
2024/01/02 01:24:36;;;;;;;7.22;1.58;;;;;;;2.28;59.68;100056.72;4957576;28;20057;-65
2024/01/02 01:27:02;;;;;;;6.57;1.13;;;;;;;2.12;60.10;100053.56;4963378;28;20035;-65
2024/01/02 01:29:27;;;;;;;9.40;1.60;;;;;;;1.82;60.88;100045.50;4988130;28;20111;-66
2024/01/02 01:31:53;;;;;;;17.33;1.90;;;;;;;2.04;60.16;100047.69;4960941;28;20042;-67
2024/01/02 01:34:18;;;;;;;10.52;2.10;;;;;;;1.86;60.60;100041.13;4960581;28;20694;-74
2024/01/02 01:36:44;;;;;;;7.50;1.77;;;;;;;2.10;60.02;100034.72;4954302;28;20038;-69
2024/01/02 01:39:09;;;;;;;8.27;2.92;;;;;;;2.05;59.86;100028.78;4960099;28;20047;-66
2024/01/02 01:41:35;;;;;;;7.13;1.83;;;;;;;2.18;59.79;100017.38;4946266;28;20034;-65
2024/01/02 01:44:00;;;;;;;16.77;2.63;;;;;;;2.17;59.48;100013.09;4976339;28;20026;-65
2024/01/02 01:46:36;;;;;;;8.88;1.67;;;;;;;2.16;59.73;100013.97;4957534;28;20171;-65
2024/01/02 01:49:03;;;;;;;10.27;1.65;;;;;;;2.15;60.03;99999.38;4990383;28;20050;-75
2024/01/02 01:51:29;;;;;;;16.67;2.55;;;;;;;2.22;59.99;99988.09;4957421;28;20061;-64
2024/01/02 01:53:58;;;;;;;7.28;1.05;;;;;;;2.01;60.20;99991.06;4958226;28;20184;-69
2024/01/02 01:56:23;;;;;;;8.77;1.63;;;;;;;2.27;59.45;99981.09;4958736;28;20469;-68
2024/01/02 01:58:49;;;;;;;18.67;1.40;;;;;;;2.23;59.36;99976.88;4990717;28;20058;-67
2024/01/02 02:01:15;;;;;;;10.73;1.63;;;;;;;2.39;59.42;99968.84;4962903;28;20528;-67
2024/01/02 02:03:40;;;;;;;4.97;0.80;;;;;;;2.27;59.80;99963.06;4973753;28;21089;-71
2024/01/02 02:06:06;;;;;;;6.78;0.95;;;;;;;2.40;59.23;99968.81;4959111;28;20501;-65
2024/01/02 02:08:32;;;;;;;4.35;1.63;;;;;;;2.33;59.61;99960.34;4959142;28;20489;-69
2024/01/02 02:10:58;;;;;;;7.13;1.15;;;;;;;2.29;59.76;99948.41;4971826;28;20050;-64
2024/01/02 02:13:23;;;;;;;15.48;0.80;;;;;;;2.42;59.02;99941.28;4958010;28;20044;-65
2024/01/02 02:15:49;;;;;;;13.68;1.50;;;;;;;2.61;58.98;99944.28;4960108;28;20489;-65
2024/01/02 02:18:15;;;;;;;4.25;0.45;;;;;;;2.49;58.92;99937.66;4959632;28;20043;-64
2024/01/02 02:20:40;;;;;;;7.10;0.80;;;;;;;2.59;58.46;99929.72;4957383;28;20209;-65
2024/01/02 02:23:06;;;;;;;7.30;1.42;;;;;;;2.54;58.31;99919.50;4958729;28;20045;-66
2024/01/02 02:25:31;;;;;;;4.35;0.82;;;;;;;2.49;58.56;99911.03;4956221;28;20133;-67
2024/01/02 02:27:57;;;;;;;10.45;1.23;;;;;;;2.35;58.83;99909.59;4958933;28;20224;-68
2024/01/02 02:30:22;;;;;;;1.30;1.00;;;;;;;2.50;58.77;99897.25;4958386;28;20073;-65
2024/01/02 02:32:48;;;;;;;5.45;0.85;;;;;;;2.47;58.72;99892.16;4965941;28;20385;-66
2024/01/02 02:35:14;;;;;;;7.25;0.75;;;;;;;2.48;58.41;99883.53;4992239;28;20026;-68
2024/01/02 02:37:39;;;;;;;11.98;0.70;;;;;;;2.60;58.09;99867.78;4958245;28;20164;-66
2024/01/02 02:40:05;;;;;;;10.43;1.33;;;;;;;2.51;58.30;99862.81;4974669;28;20108;-64
2024/01/02 02:42:31;;;;;;;4.10;0.57;;;;;;;2.57;58.52;99868.69;4955322;28;20035;-67
2024/01/02 02:44:58;;;;;;;4.60;0.95;;;;;;;2.64;58.02;99858.22;4972089;28;20053;-68
2024/01/02 02:47:23;;;;;;;7.07;1.00;;;;;;;2.44;58.58;99856.09;4989325;28;20038;-63
2024/01/02 02:49:52;;;;;;;9.13;1.40;;;;;;;2.59;58.12;99850.59;4957299;28;20046;-64
2024/01/02 02:52:19;;;;;;;4.95;0.63;;;;;;;2.61;58.40;99843.66;4968972;28;20390;-65
2024/01/02 02:54:45;;;;;;;11.43;0.60;;;;;;;2.62;58.40;99839.34;4972256;28;20042;-66
2024/01/02 02:57:10;;;;;;;8.95;2.03;;;;;;;2.61;58.08;99828.19;4966604;28;20466;-68
2024/01/02 02:59:36;;;;;;;4.13;0.75;;;;;;;2.54;58.43;99827.47;4956221;28;20047;-65
2024/01/02 03:02:01;;;;;;;7.00;1.10;;;;;;;2.50;58.79;99822.44;4959081;28;20505;-66
2024/01/02 03:04:27;;;;;;;6.22;1.20;;;;;;;2.35;59.19;99816.75;4955608;28;20409;-65
2024/01/02 03:06:53;;;;;;;9.10;1.55;;;;;;;2.49;58.77;99813.03;4955707;28;20054;-64
2024/01/02 03:09:18;;;;;;;8.18;0.77;;;;;;;2.45;59.32;99796.75;4966233;28;20137;-67
2024/01/02 03:11:45;;;;;;;11.95;0.80;;;;;;;2.43;59.09;99800.25;4955056;28;20670;-67
2024/01/02 03:14:10;;;;;;;6.57;0.95;;;;;;;2.49;59.22;99793.22;4955003;28;20038;-67
2024/01/02 03:16:36;;;;;;;14.68;1.20;;;;;;;2.40;59.93;99784.84;4968121;28;20049;-67
2024/01/02 03:19:02;;;;;;;8.20;1.58;;;;;;;2.24;60.28;99782.63;4959096;28;20030;-65
2024/01/02 03:21:28;;;;;;;7.57;1.73;;;;;;;2.18;60.57;99767.31;4958046;28;20042;-66
2024/01/02 03:23:58;;;;;;;9.70;2.03;;;;;;;2.40;60.14;99766.78;4962526;28;20046;-65
2024/01/02 03:26:24;;;;;;;8.20;1.77;;;;;;;2.33;60.84;99756.63;4960338;28;20030;-65
2024/01/02 03:28:50;;;;;;;8.05;1.63;;;;;;;2.32;60.79;99749.78;4960809;28;20038;-66
2024/01/02 03:31:16;;;;;;;8.82;1.75;;;;;;;2.43;60.42;99746.09;4967008;28;20043;-66
2024/01/02 03:33:42;;;;;;;12.00;2.15;;;;;;;2.24;61.50;99740.50;4955887;28;20045;-67
2024/01/02 03:36:16;;;;;;;4.57;0.90;;;;;;;2.33;60.90;99736.00;4958778;28;20034;-65
2024/01/02 03:38:41;;;;;;;4.78;0.50;;;;;;;1.98;62.33;99723.94;4960971;28;20042;-66
2024/01/02 03:41:07;;;;;;;5.60;1.02;;;;;;;2.20;61.59;99716.56;4971755;28;20045;-66
2024/01/02 03:43:32;;;;;;;11.23;2.55;;;;;;;2.24;61.49;99710.44;4955942;28;20068;-66
2024/01/02 03:45:57;;;;;;;10.05;1.67;;;;;;;2.25;61.82;99712.13;4958216;28;20050;-65
2024/01/02 03:48:23;;;;;;;9.40;1.30;;;;;;;2.20;62.27;99716.56;4962159;28;20034;-66
2024/01/02 03:50:49;;;;;;;10.82;1.33;;;;;;;2.13;62.07;99699.50;4953024;28;20057;-66
2024/01/02 03:53:14;;;;;;;9.10;1.88;;;;;;;2.15;62.85;99690.00;4959034;28;20035;-66
2024/01/02 03:55:40;;;;;;;9.82;1.40;;;;;;;1.98;63.13;99689.59;4968469;28;20035;-64
2024/01/02 03:58:05;;;;;;;9.13;1.33;;;;;;;1.85;63.50;99682.13;4959407;28;20045;-66
2024/01/02 04:00:33;;;;;;;11.13;0.95;;;;;;;2.07;63.15;99676.50;4951958;28;20045;-67
2024/01/02 04:02:58;;;;;;;11.23;1.52;;;;;;;2.04;63.62;99658.50;4973476;28;20485;-66
2024/01/02 04:05:24;;;;;;;4.20;1.10;;;;;;;1.84;64.01;99659.84;4958663;28;20043;-65
2024/01/02 04:07:49;;;;;;;7.82;1.40;;;;;;;2.11;63.72;99652.34;4954425;28;20042;-70
2024/01/02 04:10:15;;;;;;;4.93;0.82;;;;;;;2.08;63.81;99642.91;4957402;28;20038;-69
2024/01/02 04:12:40;;;;;;;8.45;1.42;;;;;;;1.85;64.09;99630.59;4983144;28;20058;-73
2024/01/02 04:15:06;;;;;;;10.25;1.17;;;;;;;2.15;63.70;99628.16;4972506;28;20054;-65
2024/01/02 04:17:31;;;;;;;13.75;2.08;;;;;;;2.09;63.97;99626.59;4955668;28;20034;-67
2024/01/02 04:19:57;;;;;;;5.22;1.58;;;;;;;1.91;64.71;99609.00;4946904;28;20078;-73
2024/01/02 04:22:23;;;;;;;5.43;1.15;;;;;;;2.06;64.04;99597.44;4959543;28;20089;-66
2024/01/02 04:24:48;;;;;;;4.57;0.63;;;;;;;2.01;64.90;99589.00;4956989;28;20496;-67
2024/01/02 04:27:14;;;;;;;10.40;1.20;;;;;;;1.91;64.89;99591.81;4957853;28;20610;-67
2024/01/02 04:29:39;;;;;;;5.13;1.92;;;;;;;1.91;64.81;99586.66;4954758;28;20049;-66
2024/01/02 04:32:05;;;;;;;11.20;1.40;;;;;;;1.94;64.82;99578.84;4955908;28;20412;-66
2024/01/02 04:34:31;;;;;;;9.40;1.55;;;;;;;2.10;64.64;99579.28;4968723;28;20078;-74
2024/01/02 04:36:57;;;;;;;4.47;1.67;;;;;;;2.19;63.99;99567.06;4960975;28;20069;-73
2024/01/02 04:39:23;;;;;;;7.07;1.33;;;;;;;2.00;64.96;99566.69;4965785;28;20071;-66
2024/01/02 04:41:48;;;;;;;6.63;1.27;;;;;;;2.11;64.52;99554.38;4971612;28;20474;-67
2024/01/02 04:44:14;;;;;;;9.95;1.20;;;;;;;1.87;65.14;99551.53;4955978;28;20042;-68
2024/01/02 04:46:39;;;;;;;13.38;1.40;;;;;;;2.02;64.78;99544.28;4957010;28;20030;-67
2024/01/02 04:49:04;;;;;;;7.38;1.40;;;;;;;2.05;64.94;99539.91;4956395;28;20039;-68
2024/01/02 04:51:30;;;;;;;8.15;1.63;;;;;;;2.05;64.74;99539.91;4972626;28;20065;-66
2024/01/02 04:53:55;;;;;;;9.38;1.50;;;;;;;1.91;65.09;99529.13;4964340;28;20058;-65
2024/01/02 04:56:21;;;;;;;9.73;1.23;;;;;;;1.91;65.18;99519.66;4971969;28;20035;-66
2024/01/02 04:58:46;;;;;;;7.80;1.40;;;;;;;2.13;64.78;99511.34;4955310;28;20037;-69
2024/01/02 05:01:12;;;;;;;7.97;1.58;;;;;;;2.11;64.80;99518.31;4953441;28;20852;-67
2024/01/02 05:03:37;;;;;;;10.77;0.85;;;;;;;2.15;64.88;99507.00;4952817;28;20030;-66
2024/01/02 05:06:03;;;;;;;5.03;1.02;;;;;;;2.13;65.16;99495.88;4955439;28;20049;-66
2024/01/02 05:08:29;;;;;;;6.88;0.63;;;;;;;2.21;64.98;99478.47;4960748;28;20037;-68
2024/01/02 05:10:54;;;;;;;4.90;1.17;;;;;;;1.99;65.31;99477.38;4963644;28;20050;-68
2024/01/02 05:13:19;;;;;;;8.23;0.90;;;;;;;2.02;65.47;99474.69;4960428;28;20653;-72
2024/01/02 05:15:45;;;;;;;6.38;1.13;;;;;;;2.09;65.58;99473.69;4957054;28;20509;-68
2024/01/02 05:18:10;;;;;;;2.80;0.82;;;;;;;1.90;66.29;99475.88;4960832;28;20483;-70
2024/01/02 05:20:36;;;;;;;4.97;0.70;;;;;;;2.05;65.52;99451.44;4987256;28;20516;-70
2024/01/02 05:23:03;;;;;;;5.63;0.77;;;;;;;1.68;66.50;99452.41;4962882;28;20035;-69
2024/01/02 05:25:32;;;;;;;3.05;0.70;;;;;;;2.06;65.87;99432.50;4960084;28;20089;-68
2024/01/02 05:27:58;;;;;;;5.88;0.73;;;;;;;2.12;65.37;99419.44;4956084;28;20484;-67
2024/01/02 05:30:23;;;;;;;6.75;0.75;;;;;;;1.97;65.81;99418.13;4958759;28;21096;-72
2024/01/02 05:32:49;;;;;;;6.85;1.02;;;;;;;1.74;66.58;99421.34;4956143;28;20030;-67
2024/01/02 05:35:15;;;;;;;4.13;1.30;;;;;;;2.06;65.76;99414.47;4958867;28;20520;-66
2024/01/02 05:37:40;;;;;;;8.52;0.80;;;;;;;2.01;65.48;99408.59;4958594;28;20030;-68
2024/01/02 05:40:08;;;;;;;5.43;0.93;;;;;;;1.93;65.67;99407.09;4964575;28;20394;-69
2024/01/02 05:42:34;;;;;;;5.32;1.08;;;;;;;2.04;65.58;99404.22;4961260;28;20126;-68
2024/01/02 05:45:00;;;;;;;7.75;1.15;;;;;;;2.16;65.46;99403.00;4964295;28;20069;-68
2024/01/02 05:47:26;;;;;;;5.55;1.10;;;;;;;2.13;65.43;99398.78;4960084;28;20042;-67
2024/01/02 05:49:52;;;;;;;5.72;1.25;;;;;;;2.12;65.58;99401.41;4962600;28;20061;-66
2024/01/02 05:52:17;;;;;;;6.20;0.90;;;;;;;1.90;65.66;99396.84;4981670;28;20073;-70
2024/01/02 05:54:42;;;;;;;3.72;0.60;;;;;;;2.12;65.84;99401.41;4957368;28;20046;-69
2024/01/02 05:57:10;;;;;;;6.28;0.88;;;;;;;2.06;65.76;99392.09;4960562;28;20077;-64
2024/01/02 05:59:36;;;;;;;0.82;0.40;;;;;;;2.05;65.61;99384.44;4965405;28;20134;-69
2024/01/02 06:02:01;;;;;;;9.27;0.75;;;;;;;2.00;65.63;99386.28;4959141;28;20042;-69
2024/01/02 06:04:26;;;;;;;3.80;0.77;;;;;;;1.94;65.58;99377.00;4958709;28;20317;-69
2024/01/02 06:06:52;;;;;;;5.63;0.70;;;;;;;2.09;65.67;99373.16;4956044;28;20027;-70
2024/01/02 06:09:17;;;;;;;5.55;0.57;;;;;;;2.05;65.39;99364.66;4958034;28;20042;-66
2024/01/02 06:11:43;;;;;;;6.75;1.00;;;;;;;1.92;66.22;99359.00;4955835;28;20101;-71
2024/01/02 06:14:11;;;;;;;4.72;0.73;;;;;;;2.01;66.21;99357.06;4959700;28;20050;-67
2024/01/02 06:16:37;;;;;;;2.42;0.40;;;;;;;2.06;66.00;99347.44;4964872;28;20570;-74
2024/01/02 06:19:02;;;;;;;4.55;0.63;;;;;;;1.98;66.10;99341.69;4971201;28;20048;-70
2024/01/02 06:21:28;;;;;;;6.88;1.50;;;;;;;2.03;65.91;99332.09;4975480;28;20934;-69
2024/01/02 06:23:53;;;;;;;4.75;0.30;;;;;;;2.05;65.82;99333.72;4945948;28;20137;-67
2024/01/02 06:26:19;;;;;;;4.70;0.55;;;;;;;2.06;65.55;99334.56;4962824;28;20027;-73
2024/01/02 06:28:44;;;;;;;5.25;0.45;;;;;;;1.96;65.92;99322.84;4945528;28;20038;-71
2024/01/02 06:31:10;;;;;;;5.40;0.80;;;;;;;2.10;65.53;99310.41;4961628;28;20081;-69
2024/01/02 06:33:36;;;;;;;2.50;0.55;;;;;;;2.00;65.66;99306.38;4975159;28;20042;-69
2024/01/02 06:36:01;;;;;;;3.65;0.60;;;;;;;2.14;65.66;99304.25;4957543;28;20538;-67
2024/01/02 06:38:27;;;;;;;1.60;0.50;;;;;;;1.99;65.87;99297.00;4957971;28;20043;-71
2024/01/02 06:40:53;;;;;;;2.17;0.47;;;;;;;1.88;66.29;99292.97;4962723;28;20123;-69
2024/01/02 06:43:18;;;;;;;1.10;0.30;;;;;;;1.94;65.82;99284.25;4958249;28;20034;-68
2024/01/02 06:45:44;;;;;;;1.00;0.70;;;;;;;1.87;66.13;99280.16;4956938;28;20102;-68
2024/01/02 06:48:09;;;;;;;5.68;0.55;;;;;;;1.80;66.17;99282.06;4960551;28;20046;-67
2024/01/02 06:50:35;;;;;;;1.88;0.85;;;;;;;2.05;65.52;99273.63;4986586;28;20134;-66
2024/01/02 06:53:00;;;;;;;3.33;0.85;;;;;;;2.03;65.62;99277.97;4962658;28;20369;-67
2024/01/02 06:55:27;;;;;;;3.53;0.82;;;;;;;1.97;65.67;99273.00;4956496;28;20101;-67
2024/01/02 06:57:52;;;;;;;1.42;0.50;;;;;;;1.71;66.59;99267.72;4957895;28;20039;-73
2024/01/02 07:00:18;;;;;;;1.45;0.30;;;;;;;1.65;66.57;99267.06;4956334;28;20045;-68
2024/01/02 07:02:43;;;;;;;0.98;0.88;;;;;;;1.61;66.39;99257.72;4955980;28;20031;-68
2024/01/02 07:05:14;;;;;;;3.17;0.45;;;;;;;1.65;66.17;99277.38;4959179;28;20705;-66
2024/01/02 07:07:40;;;;;;;2.65;0.55;;;;;;;1.80;65.62;99268.34;4961756;28;20117;-69
2024/01/02 07:10:06;;;;;;;5.45;0.30;;;;;;;1.68;66.14;99259.22;4956689;28;20050;-69
2024/01/02 07:12:31;;;;;;;3.97;0.60;;;;;;;1.90;65.33;99255.13;4959593;28;20038;-63
2024/01/02 07:14:57;;;;;;;4.95;0.43;;;;;;;1.99;65.24;99230.00;4956866;28;20042;-68
2024/01/02 07:17:23;;;;;;;1.63;0.20;;;;;;;1.70;65.88;99213.69;4956934;28;20042;-69
2024/01/02 07:19:51;;;;;;;2.63;0.32;;;;;;;1.73;65.71;99222.16;4955405;28;20042;-64
2024/01/02 07:22:17;;;;;;;3.72;0.55;;;;;;;1.87;65.21;99231.22;4956412;28;20539;-67
2024/01/02 07:24:43;;;;;;;1.98;0.25;;;;;;;1.73;66.09;99229.06;4954921;28;20039;-65
2024/01/02 07:27:09;;;;;;;3.08;0.35;;;;;;;1.92;65.41;99230.16;4963401;28;20438;-67
2024/01/02 07:29:37;;;;;;;4.18;0.55;;;;;;;1.70;65.79;99223.97;4956490;28;20034;-68
2024/01/02 07:32:03;;;;;;;7.75;0.88;;;;;;;1.77;65.94;99230.63;4968541;28;20917;-64
2024/01/02 07:34:28;;;;;;;0.82;0.35;;;;;;;2.03;65.17;99222.13;4956055;28;20045;-66
2024/01/02 07:36:54;;;;;;;9.80;0.82;;;;;;;1.97;65.23;99211.97;4967639;28;20760;-65
2024/01/02 07:39:19;;;;;;;3.08;0.40;;;;;;;1.91;65.83;99205.31;4956635;28;20568;-67
2024/01/02 07:41:45;;;;;;;2.45;0.30;;;;;;;1.90;65.83;99216.47;4969987;28;20029;-67
2024/01/02 07:44:10;;;;;;;5.07;0.80;;;;;;;1.85;65.34;99210.63;4957598;28;20687;-66
2024/01/02 07:46:36;;;;;;;0.63;0.30;;;;;;;1.92;65.97;99206.13;4957978;28;20636;-69
2024/01/02 07:49:02;;;;;;;1.83;0.50;;;;;;;2.03;65.27;99195.50;4954695;28;20046;-71
2024/01/02 07:51:28;;;;;;;3.13;0.60;;;;;;;1.84;66.16;99193.50;4956478;28;20072;-68
2024/01/02 07:53:53;;;;;;;2.00;0.30;;;;;;;1.78;66.55;99188.53;4953330;28;20421;-67
2024/01/02 07:56:20;;;;;;;1.02;0.38;;;;;;;1.84;66.34;99188.34;4973707;28;20915;-65
2024/01/02 07:58:48;;;;;;;4.05;0.35;;;;;;;2.00;65.83;99182.69;4961489;28;20105;-66
2024/01/02 08:01:16;;;;;;;0.88;0.20;;;;;;;1.77;66.52;99184.25;4957093;28;20502;-66
2024/01/02 08:03:42;;;;;;;0.77;0.30;;;;;;;1.65;66.90;99184.66;4958249;28;20031;-70
2024/01/02 08:06:07;;;;;;;3.17;0.68;;;;;;;1.87;66.55;99167.63;4946421;28;20053;-67
2024/01/02 08:08:33;;;;;;;2.58;0.63;;;;;;;1.85;66.38;99171.16;4955498;28;20412;-69
2024/01/02 08:11:03;;;;;;;2.60;0.50;;;;;;;1.73;66.90;99151.78;4951037;28;20531;-69
2024/01/02 08:13:29;;;;;;;1.63;0.30;;;;;;;1.91;66.40;99140.91;4972849;28;20100;-68
2024/01/02 08:15:54;;;;;;;1.55;0.43;;;;;;;1.67;67.25;99151.97;4968599;28;20863;-70
2024/01/02 08:18:20;;;;;;;2.58;0.68;;;;;;;1.81;66.83;99129.19;4958045;28;20080;-70
2024/01/02 08:20:46;;;;;;;1.02;0.35;;;;;;;1.93;66.66;99139.09;4952528;28;20134;-70
2024/01/02 08:23:12;;;;;;;2.40;0.40;;;;;;;1.87;67.31;99148.78;4986544;28;20034;-69
2024/01/02 08:25:39;;;;;;;3.33;0.57;;;;;;;2.06;66.56;99144.69;4965103;28;20693;-70
2024/01/02 08:28:06;;;;;;;1.35;0.40;;;;;;;1.79;67.41;99135.28;4952759;28;20042;-69
2024/01/02 08:30:32;;;;;;;1.60;0.30;;;;;;;1.90;66.87;99128.03;4957716;28;20065;-73
2024/01/02 08:32:59;;;;;;;3.60;1.20;;;;;;;2.05;66.35;99119.00;4953736;28;20042;-67
2024/01/02 08:35:24;;;;;;;2.30;0.32;;;;;;;1.85;67.13;99125.63;4954914;28;20042;-66
2024/01/02 08:37:50;;;;;;;1.45;0.43;;;;;;;1.83;67.30;99126.56;4965517;28;20030;-65
2024/01/02 08:40:16;;;;;;;3.00;0.50;;;;;;;1.80;67.36;99119.78;4958098;28;20034;-65
2024/01/02 08:42:42;;;;;;;2.17;0.40;;;;;;;1.96;66.91;99116.72;4956713;28;20031;-65
2024/01/02 08:45:10;;;;;;;1.55;0.43;;;;;;;1.91;66.81;99109.13;4970521;28;20596;-65
2024/01/02 08:47:40;;;;;;;0.80;0.50;;;;;;;2.21;66.42;99111.59;4967001;28;20103;-64
2024/01/02 08:50:07;;;;;;;2.67;0.30;;;;;;;2.12;66.17;99113.56;4954005;28;20350;-67
2024/01/02 08:52:35;;;;;;;1.23;0.50;;;;;;;2.24;66.02;99122.66;4960104;28;20073;-65
2024/01/02 08:55:02;;;;;;;0.95;0.20;;;;;;;1.96;67.05;99121.88;4955325;28;20397;-68
2024/01/02 08:57:28;;;;;;;1.30;0.43;;;;;;;2.39;66.12;99117.84;4960432;28;20089;-65
2024/01/02 08:59:54;;;;;;;1.15;0.35;;;;;;;2.21;66.27;99116.75;4954429;28;20051;-65
2024/01/02 09:02:19;;;;;;;4.20;0.60;;;;;;;2.03;67.26;99107.88;4960891;28;20037;-67
2024/01/02 09:04:45;;;;;;;1.40;0.40;;;;;;;2.04;66.84;99109.56;4955689;28;20070;-69
2024/01/02 09:07:11;;;;;;;0.82;0.30;;;;;;;1.95;66.99;99105.53;4959473;28;20034;-68
2024/01/02 09:09:37;;;;;;;2.63;0.40;;;;;;;2.22;66.87;99123.56;4984518;28;20398;-66
2024/01/02 09:12:02;;;;;;;3.42;0.52;;;;;;;1.87;66.79;99113.53;4956016;28;20117;-65
2024/01/02 09:14:29;;;;;;;2.05;0.50;;;;;;;2.18;66.50;99133.16;4959933;28;20437;-65
2024/01/02 09:16:54;;;;;;;0.90;0.20;;;;;;;2.18;66.43;99130.56;4956454;28;20162;-66
2024/01/02 09:19:20;;;;;;;1.20;0.25;;;;;;;2.32;65.70;99119.81;4960186;28;20130;-66
2024/01/02 09:21:45;;;;;;;0.50;0.20;;;;;;;2.35;66.13;99125.72;4959440;28;20066;-67
2024/01/02 09:24:14;;;;;;;0.68;0.17;;;;;;;2.25;66.54;99120.91;4959831;28;20046;-65
2024/01/02 09:26:44;;;;;;;0.22;0.10;;;;;;;1.84;67.48;99121.38;4957937;28;20031;-66
2024/01/02 09:29:10;;;;;;;0.40;0.15;;;;;;;2.57;65.97;99119.78;4956676;28;20047;-65
2024/01/02 09:31:35;;;;;;;0.22;0.10;;;;;;;2.75;65.31;99118.31;4957604;28;20429;-66
2024/01/02 09:34:01;;;;;;;0.40;0.20;;;;;;;2.39;65.82;99115.28;4954050;28;20412;-66
2024/01/02 09:36:29;;;;;;;0.55;0.20;;;;;;;2.30;66.62;99113.84;4957563;28;20104;-64
2024/01/02 09:38:56;;;;;;;0.60;0.13;;;;;;;2.34;66.01;99113.69;4951328;28;20537;-65
2024/01/02 09:41:56;;;;;;;1.35;0.17;;;;;;;2.54;65.68;99104.44;4959924;28;20620;-66
2024/01/02 09:44:27;;;;;;;1.35;0.30;;;;;;;2.51;65.88;99104.53;4959859;28;20038;-65
2024/01/02 09:47:26;;;;;;;0.52;0.22;;;;;;;2.80;65.14;99087.16;4954001;28;20629;-64
2024/01/02 09:49:58;;;;;;;0.50;0.20;;;;;;;2.55;65.81;99090.63;4982446;28;20232;-67
2024/01/02 09:52:46;;;;;;;0.90;0.10;;;;;;;2.68;65.24;99086.72;4961236;28;20084;-66
2024/01/02 09:55:49;;;;;;;0.40;0.10;;;;;;;2.75;65.20;99093.34;4964627;28;20052;-64
2024/01/02 09:58:44;;;;;;;0.52;0.20;;;;;;;2.55;65.86;99091.50;4937707;28;20042;-65
2024/01/02 10:01:18;;;;;;;0.77;0.45;;;;;;;2.76;65.16;99089.88;4944747;28;20566;-67
2024/01/02 10:04:12;;;;;;;0.50;0.10;;;;;;;2.74;65.24;99088.25;4957504;28;20536;-63
2024/01/02 10:06:58;;;;;;;0.50;0.20;;;;;;;3.01;64.74;99088.97;4956381;28;20034;-65
2024/01/02 10:09:41;;;;;;;1.85;0.20;;;;;;;2.72;65.25;99097.78;4959402;28;20441;-65
2024/01/02 10:12:15;;;;;;;0.65;0.20;;;;;;;3.02;64.93;99093.22;4950652;28;20038;-64
2024/01/02 10:15:00;;;;;;;0.55;0.17;;;;;;;3.12;64.64;99097.16;4954459;28;20050;-65
2024/01/02 10:17:46;;;;;;;0.88;0.20;;;;;;;3.03;64.86;99092.34;4955301;28;20043;-65
2024/01/02 10:20:29;;;;;;;0.88;0.30;;;;;;;2.77;65.60;99085.56;4953432;28;20188;-65
2024/01/02 10:23:34;;;;;;;3.50;0.20;;;;;;;2.92;65.80;99084.16;4953004;28;20121;-64
2024/01/02 10:26:04;;;;;;;0.40;0.20;;;;;;;2.74;65.79;99081.34;4948920;28;20038;-64
2024/01/02 10:28:35;;;;;;;0.93;0.22;;;;;;;3.08;65.04;99076.69;4956557;28;20039;-65
2024/01/02 10:31:26;;;;;;;1.42;0.20;;;;;;;2.96;65.43;99073.66;4947317;28;20061;-64
2024/01/02 10:34:28;;;;;;;1.73;0.52;;;;;;;2.88;65.73;99062.78;4951638;28;20051;-64
2024/01/02 10:37:02;;;;;;;1.15;0.40;;;;;;;3.13;65.23;99065.25;4949882;28;20042;-64
2024/01/02 10:39:46;;;;;;;0.55;0.22;;;;;;;3.17;65.08;99068.59;4954874;28;20058;-64
2024/01/02 10:42:28;;;;;;;0.60;0.20;;;;;;;3.31;64.80;99062.91;4951871;28;20266;-65
2024/01/02 10:45:02;;;;;;;0.93;0.28;;;;;;;3.10;65.50;99067.97;4951922;28;20132;-65
2024/01/02 10:47:37;;;;;;;0.40;0.25;;;;;;;3.42;64.39;99065.91;4986103;28;20114;-64
2024/01/02 10:50:04;;;;;;;0.52;0.30;;;;;;;3.53;64.22;99068.09;4948709;28;20046;-64
2024/01/02 10:53:03;;;;;;;0.55;0.30;;;;;;;3.51;64.83;99062.97;4955670;28;20198;-64
2024/01/02 10:55:59;;;;;;;0.40;0.20;;;;;;;3.67;64.41;99067.53;4956515;28;20491;-64
2024/01/02 10:58:27;;;;;;;1.50;0.30;;;;;;;3.63;64.12;99061.66;4957606;28;20576;-65
2024/01/02 11:01:22;;;;;;;2.17;0.30;;;;;;;3.57;64.32;99046.41;4953810;28;20073;-68
2024/01/02 11:03:57;;;;;;;0.60;0.30;;;;;;;3.71;64.17;99049.25;4983487;28;20053;-65
2024/01/02 11:06:27;;;;;;;1.27;0.50;;;;;;;3.70;63.79;99047.59;4961274;28;20108;-65
2024/01/02 11:09:12;;;;;;;0.70;0.30;;;;;;;3.53;64.33;99045.66;4959057;28;20045;-65
2024/01/02 11:11:40;;;;;;;0.98;0.20;;;;;;;3.48;64.64;99047.59;4956724;28;20022;-65
2024/01/02 11:14:06;;;;;;;0.80;0.30;;;;;;;3.81;63.86;99044.56;4975851;28;20415;-64
2024/01/02 11:16:35;;;;;;;2.72;0.30;;;;;;;3.86;63.64;99046.97;4957160;28;20113;-65
2024/01/02 11:19:04;;;;;;;0.70;0.30;;;;;;;3.80;63.64;99035.13;4947525;28;20053;-65
2024/01/02 11:21:30;;;;;;;0.90;0.50;;;;;;;3.80;63.80;99037.69;4956073;28;20033;-64
2024/01/02 11:23:59;;;;;;;0.70;0.25;;;;;;;3.66;64.64;99032.28;4952374;28;20038;-65
2024/01/02 11:26:46;;;;;;;0.93;0.38;;;;;;;3.78;64.26;99031.75;4958740;28;20100;-66
2024/01/02 11:29:18;;;;;;;1.10;0.50;;;;;;;3.89;64.09;99026.16;4965730;28;20062;-65
2024/01/02 11:31:46;;;;;;;1.00;0.30;;;;;;;4.04;63.71;99029.84;4955731;28;20022;-65
2024/01/02 11:34:39;;;;;;;0.80;0.30;;;;;;;3.99;63.82;99022.28;4950936;28;20050;-65
2024/01/02 11:37:45;;;;;;;0.60;0.30;;;;;;;4.06;63.89;99033.22;4951170;28;20752;-65
2024/01/02 11:40:22;;;;;;;0.60;0.30;;;;;;;3.96;64.39;99036.19;4950115;28;20038;-65
2024/01/02 11:43:17;;;;;;;1.27;0.55;;;;;;;4.19;64.07;99034.38;4966811;28;20069;-66
2024/01/02 11:45:44;;;;;;;1.02;0.28;;;;;;;4.40;63.63;99020.47;4952827;28;20835;-65